Tiempo atmosférico en la estación meteorológica de Campos, Salines Llevant, Illes Balears (3 m.)



Fecha
DESCASC
Temp. máxima en grados centígrados (hora)
DESCASC
Temp. mínima en grados centígrados (hora)
DESCASC
Temp. media en grados centígrados
DESCASC
Racha de viento máxima en m/sg (hora)
DESCASC
Velocidad máxima media en intervalos de 10 minutos(hora)
DESCASC
Precipitaciones diarias en mm
DESCASC
Precipitaciones de 00:00 a 06:00 en mm
DESCASC
Precipitaciones de 06:00 a 12:00 en mm
DESCASC
Precipitaciones de 12:00 a 18:00 en mm
DESCASC
Precipitaciones de 18:00 a 24:00 en mm
DESCASC
08-12-2019 16.5 (15:50) 4.1 (06:00) 10.3 7.22 (15:40) 4.72 (14:40) 0.2 0 0.2 0 0
07-12-2019 16.6 (14:30) 5.1 (06:30) 10.9 2.78 (13:30) 2.22 (13:30) 0 0 0 0 0
06-12-2019 19.1 (15:00) 6.9 (01:30) 13 4.72 (16:20) 3.33 (16:30) 0 0 0 0 0
05-12-2019 17.5 (13:40) 5.4 (00:00) 11.5 5 (15:00) 2.78 (14:00) 0 0 0 0 0
04-12-2019 16.5 (01:10) 9.6 (00:00) 13.1 17.22 (01:40) 9.44 (01:50) 27.6 24.6 2.6 0.4 0
03-12-2019 16.3 (23:00) 11.6 (00:00) 13.9 13.89 (23:50) 7.22 (23:00) 6.8 0 0 0 6.8
02-12-2019 15.9 (14:40) 11.5 (00:00) 13.7 10.28 (13:40) 6.11 (13:50) 6.8 1.6 5.2 0 0
01-12-2019 18.7 (13:00) 12.5 (00:00) 15.6 7.22 (10:50) 5 (10:50) 0 0 0 0 0
30-11-2019 18.4 (15:50) 8.1 (00:00) 13.3 6.39 (18:00) 4.17 (14:50) 0.2 0 0.2 0 0
29-11-2019 18.9 (13:10) 8.4 (00:00) 13.6 12.5 (03:20) 9.17 (03:20) 0 0 0 0 0
28-11-2019 18.4 (11:40) 10 (00:00) 14.2 13.33 (15:40) 8.33 (12:50) 0 0 0 0 0
27-11-2019 19.9 (13:20) 13.5 (00:00) 16.7 15.28 (12:40) 10.28 (12:50) 0 0 0 0 0
26-11-2019 19 (14:00) 5.8 (00:00) 12.4 10.56 (22:20) 5.56 (22:20) 0 0 0 0 0
25-11-2019 18.1 (14:20) 5.4 (00:00) 11.8 12.78 (14:40) 7.78 (13:00) 0 0 0 0 0
24-11-2019 16.5 (14:20) 8.2 (00:00) 12.3 12.78 (10:20) 10 (10:20) 0 0 0 0 0
23-11-2019 17.5 (03:20) 12.1 (00:00) 14.8 19.72 (12:50) 14.44 (12:50) 4.6 2.4 0 2.2 0
22-11-2019 18.2 (11:50) 10.7 (00:00) 14.5 15.28 (22:30) 9.17 (23:20) 43.8 8.6 26.6 0.6 8
21-11-2019 16.7 (11:10) 7.9 (00:00) 12.3 12.5 (13:40) 8.61 (14:40) 1.8 1.6 0.2 0 0
20-11-2019 13.8 (22:00) 1.5 (00:00) 7.7 7.22 (18:20) 3.89 (18:20) 0.6 0 0 0.2 0.4
19-11-2019 16.3 (16:10) 3.2 (00:00) 9.7 8.33 (12:40) 6.11 (12:40) 0.2 0 0 0.2 0
18-11-2019 16.3 (00:10) 5 (00:00) 10.6 12.5 (15:40) 8.06 (15:10) 3.6 3.4 0.2 0 0
17-11-2019 16.2 (23:59) 5.8 (00:00) 11 13.06 (15:00) 9.17 (15:00) 0.2 0.2 0 0 0
16-11-2019 13.2 (14:20) 3.9 (00:00) 8.5 8.89 (15:00) 6.11 (15:10) 0 0 0 0 0
15-11-2019 14.9 (13:50) 5.4 (00:00) 10.1 16.67 (06:40) 11.11 (06:40) 3.6 0 3.6 0 0
14-11-2019 18.3 (11:40) 4.7 (00:00) 11.5 14.72 (15:20) 10.83 (15:10) 1.2 0 0.2 0.8 0.2
13-11-2019 13.8 (13:30) 5.7 (00:00) 9.8 8.33 (15:40) 5.28 (15:40) 9.6 0 9.4 0.2 0
12-11-2019 17.1 (15:40) 4.2 (00:00) 10.7 11.67 (14:40) 7.22 (14:20) 0 0 0 0 0

Gráficas

Temp. máximas Temp. mínimas Temp. medias Precipitaciones Rachas de viento máximas Velocidades máximas media en intervalos de 10 minutos

Datos horarios

Fecha y hora oficial Temperatura (ºC) Velocidad del viento (km/h) Dirección del viento Racha (km/h) Dirección de racha Precipitación (mm) Presión (hPa) Tendencia (hPa) Humedad (%)
2019-12-11 23:00:00 11.9 13 Noroeste 19 Norte 0 -- -- 83
2019-12-11 22:00:00 11.7 8 Norte 15 Norte 0 -- -- 79
2019-12-11 21:00:00 12.2 8 Noroeste 33 Noroeste 0 -- -- 76
2019-12-11 20:00:00 13.1 19 Noroeste 36 Noroeste 0 -- -- 75
2019-12-11 19:00:00 14.5 25 Noroeste 38 Norte 0 -- -- 68
2019-12-11 18:00:00 14.4 13 Oeste 23 Oeste 0 -- -- 76
2019-12-11 17:00:00 15.4 18 Oeste 31 Oeste 0 -- -- 75
2019-12-11 16:00:00 16.2 16 Oeste 29 Oeste 0 -- -- 70
2019-12-11 15:00:00 16.6 20 Oeste 28 Oeste 0 -- -- 81
2019-12-11 14:00:00 16.3 17 Oeste 26 Sudoeste 0 -- -- 80
2019-12-11 13:00:00 16.4 18 Oeste 26 Oeste 0 -- -- 80
2019-12-11 12:00:00 16 15 Oeste 26 Sudoeste 0 -- -- 82
2019-12-11 11:00:00 10.9 0 Calma 6 Sudoeste 0 -- -- 100
2019-12-11 10:00:00 6.6 0 Calma 3 Sudeste 0 -- -- 99
2019-12-11 09:00:00 2.5 0 Calma 2 Sur 0 -- -- 99
2019-12-11 08:00:00 1.4 0 Calma 5 Sudeste 0 -- -- 99
2019-12-11 07:00:00 1.3 0 Calma 3 Norte 0 -- -- 98
2019-12-11 06:00:00 1.3 2 Sudeste 3 Sudeste 0 -- -- 98
2019-12-11 05:00:00 1.4 0 Calma 3 Sudeste 0 -- -- 98
2019-12-11 04:00:00 1.6 0 Calma 4 Nordeste 0 -- -- 97
2019-12-11 03:00:00 1.7 0 Calma 3 Sudeste 0 -- -- 97
2019-12-11 02:00:00 2.2 0 Calma 2 Norte 0 -- -- 96
2019-12-11 01:00:00 2.9 0 Calma 3 Sudeste 0 -- -- 97
2019-12-11 00:00:00 3.5 0 Calma 3 Oeste 0 -- -- 96
2019-12-10 23:00:00 3.9 0 Calma 4 Sudeste 0 -- -- 95
2019-12-10 22:00:00 4.8 0 Calma 6 Sudeste 0 -- -- 94
2019-12-10 21:00:00 5.5 0 Calma 3 Sudeste 0 -- -- 92
2019-12-10 20:00:00 7.2 0 Calma 5 Noroeste 0 -- -- 90
2019-12-10 19:00:00 9.9 0 Calma 11 Noroeste 0 -- -- 80
2019-12-10 18:00:00 13.2 11 Oeste 23 Oeste 0 -- -- 75
2019-12-10 17:00:00 14.2 15 Oeste 29 Oeste 0 -- -- 70
2019-12-10 16:00:00 15.5 15 Oeste 24 Oeste 0 -- -- 63
2019-12-10 15:00:00 16 12 Oeste 21 Oeste 0 -- -- 60
2019-12-10 14:00:00 15.5 10 Norte 21 Norte 0 -- -- 54
2019-12-10 13:00:00 14.9 14 Norte 30 Norte 0 -- -- 54
2019-12-10 12:00:00 14.5 20 Norte 28 Norte 0 -- -- 54
2019-12-10 11:00:00 13.4 8 Norte 17 Norte 0 -- -- 74
2019-12-10 10:00:00 9.8 5 Oeste 6 Oeste 0 -- -- 90
2019-12-10 09:00:00 5 0 Calma 4 Este 0 -- -- 96
2019-12-10 08:00:00 4 3 Nordeste 5 Norte 0 -- -- 95
2019-12-10 07:00:00 4.2 0 Calma 4 Sur 0 -- -- 92
2019-12-10 06:00:00 5.5 0 Calma 4 Nordeste 0 -- -- 89
2019-12-10 05:00:00 8.1 3 Oeste 20 Noroeste 0 -- -- 85
2019-12-10 04:00:00 7 2 Norte 12 Noroeste 0 -- -- 89
2019-12-10 03:00:00 8.6 4 Oeste 10 Noroeste 0 -- -- 84
2019-12-10 02:00:00 11.2 6 Noroeste 26 Noroeste 0 -- -- 75
2019-12-10 01:00:00 12.2 15 Noroeste 34 Noroeste 0 -- -- 74
2019-12-10 00:00:00 13.1 26 Noroeste 41 Noroeste 0 -- -- 70
2019-12-09 23:00:00 13.4 24 Noroeste 32 Noroeste 0 -- -- 69
2019-12-09 22:00:00 13.9 10 Oeste 24 Noroeste 0 -- -- 66
2019-12-09 21:00:00 14 13 Noroeste 23 Noroeste 0 -- -- 69
2019-12-09 20:00:00 14.4 16 Noroeste 57 Noroeste 0 -- -- 67
2019-12-09 19:00:00 14.5 35 Noroeste 48 Noroeste 0 -- -- 65
2019-12-09 18:00:00 14.2 16 Norte 51 Noroeste 0 -- -- 67
2019-12-09 17:00:00 15.3 33 Noroeste 61 Noroeste 0 -- -- 63
2019-12-09 16:00:00 16.3 38 Noroeste 74 Noroeste 0 -- -- 59
2019-12-09 15:00:00 16.3 49 Noroeste 69 Noroeste 0 -- -- 58
2019-12-09 14:00:00 17.4 46 Noroeste 70 Noroeste 0 -- -- 50
2019-12-09 13:00:00 18.1 22 Oeste 40 Oeste 0 -- -- 49
2019-12-09 12:00:00 16.8 31 Noroeste 43 Noroeste 0 -- -- 54
2019-12-09 11:00:00 16 28 Noroeste 41 Noroeste 0 -- -- 59
2019-12-09 10:00:00 15 24 Noroeste 35 Noroeste 0 -- -- 65
2019-12-09 09:00:00 13.6 23 Oeste 33 Oeste 0 -- -- 80
2019-12-09 08:00:00 10 6 Oeste 12 Sudoeste 0 -- -- 99
2019-12-09 07:00:00 7.9 3 Sudeste 8 Norte 0 -- -- 98
2019-12-09 06:00:00 9.1 4 Norte 5 Norte 0 -- -- 97
2019-12-09 05:00:00 10.3 3 Sudeste 6 Sudeste 0 -- -- 96
2019-12-09 04:00:00 11.6 3 Sudeste 4 Sur 0 -- -- 96
2019-12-09 03:00:00 11.9 0 Calma 6 Noroeste 0 -- -- 96
2019-12-09 02:00:00 11.7 0 Calma 8 Norte 0 -- -- 95
2019-12-09 01:00:00 12 4 Norte 14 Sudoeste 0 -- -- 93
2019-12-09 00:00:00 14.5 5 Sudoeste 21 Oeste 0 -- -- 87
2019-12-08 23:00:00 14.7 11 Oeste 22 Oeste 0 -- -- 87
2019-12-08 22:00:00 14.9 15 Oeste 22 Oeste 0 -- -- 86
2019-12-08 21:00:00 14.7 15 Oeste 23 Sudoeste 0 -- -- 86
2019-12-08 20:00:00 12.9 4 Norte 22 Oeste 0 -- -- 89
2019-12-08 19:00:00 14.7 14 Oeste 21 Oeste 0 -- -- 85
2019-12-08 18:00:00 14.7 14 Oeste 23 Oeste 0 -- -- 83
2019-12-08 17:00:00 15.2 13 Oeste 22 Oeste 0 -- -- 82
2019-12-08 16:00:00 16.5 15 Oeste 26 Oeste 0 -- -- 78
2019-12-08 15:00:00 16.3 17 Oeste 25 Oeste 0 -- -- 78
2019-12-08 14:00:00 16.2 15 Oeste 22 Oeste 0 -- -- 81
2019-12-08 13:00:00 16 8 Sudoeste 14 Sudoeste 0 -- -- 91
2019-12-08 12:00:00 14.2 8 Sudoeste 12 Sudoeste 0 -- -- 100
2019-12-08 11:00:00 10.5 0 Calma 4 Norte 0 -- -- 100
2019-12-08 10:00:00 8 3 Noroeste 4 Noroeste 0.2 -- -- 100
2019-12-08 09:00:00 5.5 0 Calma 4 Norte 0 -- -- 100
2019-12-08 08:00:00 4.1 0 Calma 2 Norte 0 -- -- 100
2019-12-08 07:00:00 4.6 0 Calma 4 Norte 0 -- -- 100
2019-12-08 06:00:00 4.1 0 Calma 2 Sur 0 -- -- 100
2019-12-08 05:00:00 4.6 0 Calma 3 Norte 0 -- -- 100
2019-12-08 04:00:00 5.4 3 Norte 5 Norte 0 -- -- 100
2019-12-08 03:00:00 4.7 0 Calma 3 Sudeste 0 -- -- 99
2019-12-08 02:00:00 5.2 0 Calma 4 Norte 0 -- -- 99
2019-12-08 01:00:00 5.5 0 Calma 3 Sur 0 -- -- 99
2019-12-08 00:00:00 5.6 0 Calma 2 Sur 0 -- -- 98
2019-12-07 23:00:00 6.4 0 Calma 3 Noroeste 0 -- -- 98
2019-12-07 22:00:00 7.6 3 Norte 5 Norte 0 -- -- 98
2019-12-07 21:00:00 7.8 2 Sudeste 3 Sur 0 -- -- 97
2019-12-07 20:00:00 9.2 0 Calma 3 Norte 0 -- -- 96
2019-12-07 19:00:00 10.3 0 Calma 5 Sur 0 -- -- 95
2019-12-07 18:00:00 12 0 Calma 6 Sudeste 0 -- -- 92
2019-12-07 17:00:00 14 4 Sudeste 6 Sudeste 0 -- -- 91
2019-12-07 16:00:00 15 0 Calma 6 Sur 0 -- -- 89
2019-12-07 15:00:00 15.9 0 Calma 4 Noroeste 0 -- -- 82
2019-12-07 14:00:00 15.7 3 Norte 10 Norte 0 -- -- 84
2019-12-07 13:00:00 14.9 4 Noroeste 8 Nordeste 0 -- -- 96
2019-12-07 12:00:00 12.3 7 Norte 10 Norte 0 -- -- 99
2019-12-07 11:00:00 10.7 0 Calma 3 Norte 0 -- -- 100
2019-12-07 10:00:00 8.4 2 Norte 4 Norte 0 -- -- 100
2019-12-07 09:00:00 6.8 2 Norte 5 Norte 0 -- -- 100
2019-12-07 08:00:00 5.2 0 Calma 2 Sudeste 0 -- -- 100
2019-12-07 07:00:00 5.3 0 Calma 3 Norte 0 -- -- 100
2019-12-07 06:00:00 5.6 0 Calma 4 Norte 0 -- -- 99
2019-12-07 05:00:00 6.3 0 Calma 5 Norte 0 -- -- 99
2019-12-07 04:00:00 7.3 3 Norte 5 Norte 0 -- -- 100
2019-12-07 03:00:00 6.8 0 Calma 4 Norte 0 -- -- 100
2019-12-07 02:00:00 7 0 Calma -- -- 0 -- -- 99
2019-12-07 01:00:00 7.3 0 Calma 6 Oeste 0 -- -- 98
2019-12-07 00:00:00 8 5 Sudeste 6 Sudeste 0 -- -- 97
2019-12-06 23:00:00 10.5 0 Calma 5 Este 0 -- -- 97
2019-12-06 22:00:00 11.6 2 Nordeste 8 Nordeste 0 -- -- 98
2019-12-06 21:00:00 9.4 0 Calma 3 Norte 0 -- -- 96
2019-12-06 20:00:00 10.6 0 Calma 8 Nordeste 0 -- -- 95
2019-12-06 19:00:00 12.6 5 Norte 12 Este 0 -- -- 95
2019-12-06 18:00:00 13.6 9 Sudeste 14 Este 0 -- -- 91
2019-12-06 17:00:00 15.9 11 Sudeste 17 Sudeste 0 -- -- 84
2019-12-06 16:00:00 18 10 Este 15 Sudeste 0 -- -- 74
2019-12-06 15:00:00 19.1 5 Sudoeste 10 Sudoeste 0 -- -- 71
2019-12-06 14:00:00 18.2 7 Sudoeste 11 Sudoeste 0 -- -- 72
2019-12-06 13:00:00 17.9 5 Noroeste 10 Nordeste 0 -- -- 74
2019-12-06 12:00:00 16.8 4 Norte 8 Nordeste 0 -- -- 82
2019-12-06 11:00:00 14.2 5 Noroeste 6 Noroeste 0 -- -- 99
2019-12-06 10:00:00 10.8 0 Calma 5 Noroeste 0 -- -- 100
2019-12-06 09:00:00 8.4 0 Calma 6 Sudeste 0 -- -- 100
2019-12-06 08:00:00 8.1 3 Norte 6 Norte 0 -- -- 100
2019-12-06 07:00:00 7.5 0 Calma 3 Sudeste 0 -- -- 99
2019-12-06 06:00:00 8.6 2 Noroeste 4 Norte 0 -- -- 100
2019-12-06 05:00:00 8.6 0 Calma 3 Sur 0 -- -- 100
2019-12-06 04:00:00 8.6 2 Noroeste 5 Sur 0 -- -- 100
2019-12-06 03:00:00 7.7 0 Calma 2 Norte 0 -- -- 99
2019-12-06 02:00:00 7 0 Calma 4 Norte 0 -- -- 99
2019-12-06 01:00:00 7.4 3 Norte 5 Norte 0 -- -- 100
2019-12-06 00:00:00 7 2 Norte 4 Norte 0 -- -- 99
2019-12-05 23:00:00 6.9 2 Sudeste -- -- 0 -- -- 98
2019-12-05 22:00:00 8.5 2 Norte 4 Norte 0 -- -- 97
2019-12-05 21:00:00 8.3 0 Calma 4 Sudeste 0 -- -- 96
2019-12-05 20:00:00 8.9 3 Sudeste 4 Sudeste 0 -- -- 95
2019-12-05 19:00:00 10.4 2 Nordeste 5 Sur 0 -- -- 94
2019-12-05 18:00:00 12.4 4 Sudeste 8 Sudoeste 0 -- -- 89
2019-12-05 17:00:00 16 4 Sudoeste 15 Sudoeste 0 -- -- 80
2019-12-05 16:00:00 17.3 8 Sudoeste 18 Sudoeste 0 -- -- 77
2019-12-05 15:00:00 17.2 9 Sudoeste 18 Sudoeste 0 -- -- 79
2019-12-05 14:00:00 17 10 Sudoeste 17 Sudoeste 0 -- -- 77
2019-12-05 13:00:00 17.4 7 Sudoeste 14 Oeste 0 -- -- 73
2019-12-05 12:00:00 16.6 6 Oeste 9 Oeste 0 -- -- 82
2019-12-05 11:00:00 13.6 2 Norte 8 Norte 0 -- -- 97
2019-12-05 10:00:00 10.1 0 Calma 10 Noroeste 0 -- -- 99
2019-12-05 09:00:00 7.5 0 Calma 7 Norte 0 -- -- 100
2019-12-05 08:00:00 5.7 0 Calma 6 Norte 0 -- -- 99
2019-12-05 07:00:00 5.4 3 Sur 4 Sur 0 -- -- 99
2019-12-05 06:00:00 6.4 3 Norte 6 Norte 0 -- -- 100
2019-12-05 05:00:00 6.2 0 Calma 4 Norte 0 -- -- 99
2019-12-05 04:00:00 6.1 0 Calma 3 Nordeste 0 -- -- 99
2019-12-05 03:00:00 7 2 Norte 4 Norte 0 -- -- 99
2019-12-05 02:00:00 7.3 0 Calma 4 Oeste 0 -- -- 97
2019-12-05 01:00:00 9.2 2 Norte 10 Norte 0 -- -- 98
2019-12-05 00:00:00 9.6 0 Calma 12 Nordeste 0 -- -- 97
2019-12-04 23:00:00 10.5 4 Nordeste 16 Nordeste 0 -- -- 97
2019-12-04 22:00:00 10.6 8 Nordeste 22 Nordeste 0 -- -- 97
2019-12-04 21:00:00 10.7 15 Nordeste 22 Nordeste 0 -- -- 97
2019-12-04 20:00:00 10.6 12 Nordeste 17 Nordeste 0 -- -- 97
2019-12-04 19:00:00 10.5 6 Nordeste 10 Noroeste 0 -- -- 97
2019-12-04 18:00:00 11.1 5 Norte 9 Norte 0 -- -- 95
2019-12-04 17:00:00 12.2 7 Norte 17 Norte 0 -- -- 94
2019-12-04 16:00:00 12.8 13 Norte 22 Nordeste 0 -- -- 93
2019-12-04 15:00:00 12.8 12 Norte 18 Nordeste 0 -- -- 94
2019-12-04 14:00:00 12.2 13 Nordeste 24 Norte 0 -- -- 94
2019-12-04 13:00:00 12.6 10 Norte 16 Nordeste 0.4 -- -- 95
2019-12-04 12:00:00 13.3 2 Nordeste 18 Norte 0.4 -- -- 94
2019-12-04 11:00:00 13.8 7 Nordeste 18 Sur 0.6 -- -- 90
2019-12-04 10:00:00 14.3 0 Calma 38 Sur 1.6 -- -- 91
2019-12-04 09:00:00 12.4 7 Norte 12 Norte 0 -- -- 95
2019-12-04 08:00:00 12.4 2 Nordeste 26 Este 0 -- -- 88
2019-12-04 07:00:00 15 19 Este 41 Este 0 -- -- 83
2019-12-04 06:00:00 16.5 24 Sudeste 53 Este 1.6 -- -- 94
2019-12-04 05:00:00 16.1 25 Sudeste 48 Este 0.2 -- -- 88
2019-12-04 04:00:00 16.3 28 Este 53 Este 1.2 -- -- 93
2019-12-04 03:00:00 12.9 8 Este 43 Sudeste 11.4 -- -- 92
2019-12-04 02:00:00 11.9 19 Sudeste 62 Nordeste 10 -- -- 89
2019-12-04 01:00:00 16.4 26 Este 47 Este 0.2 -- -- 92
2019-12-04 00:00:00 16.2 23 Este 50 Nordeste 1.8 -- -- 92
2019-12-03 23:00:00 16.3 26 Este 44 Este 1 -- -- 91
2019-12-03 22:00:00 15.9 15 Nordeste 46 Nordeste 4 -- -- 90
2019-12-03 21:00:00 16 15 Nordeste 24 Nordeste 0 -- -- 85
2019-12-03 20:00:00 15.7 13 Nordeste 33 Nordeste 0 -- -- 85
2019-12-03 19:00:00 15 19 Nordeste 36 Nordeste 0 -- -- 82
2019-12-03 18:00:00 14.8 21 Nordeste 38 Nordeste 0 -- -- 80
2019-12-03 17:00:00 14.5 15 Nordeste 30 Nordeste 0 -- -- 82
2019-12-03 16:00:00 14.3 16 Nordeste 37 Nordeste 0 -- -- 79
2019-12-03 15:00:00 14.8 21 Nordeste 36 Nordeste 0 -- -- 75
2019-12-03 14:00:00 14.3 18 Nordeste 32 Nordeste 0 -- -- 75
2019-12-03 13:00:00 14.3 15 Nordeste 32 Nordeste 0 -- -- 76
2019-12-03 12:00:00 13.8 18 Nordeste 41 Norte 0 -- -- 75
2019-12-03 11:00:00 13.3 23 Nordeste 38 Norte 0 -- -- 74
2019-12-03 10:00:00 12.3 15 Nordeste 30 Nordeste 0 -- -- 77
2019-12-03 09:00:00 12.1 14 Nordeste 31 Este 0 -- -- 78
2019-12-03 08:00:00 11.8 15 Nordeste 30 Este 0 -- -- 78
2019-12-03 07:00:00 11.7 14 Nordeste 30 Nordeste 0 -- -- 78
2019-12-03 06:00:00 12 15 Nordeste 30 Nordeste 0 -- -- 79
2019-12-03 05:00:00 12.2 15 Nordeste 28 Nordeste 0 -- -- 80
2019-12-03 04:00:00 12.5 13 Nordeste 27 Nordeste 0 -- -- 81
2019-12-03 03:00:00 12.5 12 Nordeste 22 Nordeste 0 -- -- 83
2019-12-03 02:00:00 12.6 9 Nordeste 22 Nordeste 0 -- -- 82
2019-12-03 01:00:00 13 15 Nordeste 26 Nordeste 0 -- -- 80
2019-12-03 00:00:00 13.2 15 Nordeste 28 Nordeste 0 -- -- 79
2019-12-02 23:00:00 12.9 15 Nordeste 24 Nordeste 0 -- -- 81
2019-12-02 22:00:00 11.8 12 Nordeste 17 Nordeste 0 -- -- 88
2019-12-02 21:00:00 11.7 9 Nordeste 14 Nordeste 0 -- -- 88
2019-12-02 20:00:00 11.9 8 Nordeste 18 Norte 0 -- -- 85
2019-12-02 19:00:00 12.8 13 Nordeste 23 Nordeste 0 -- -- 83
2019-12-02 18:00:00 13.1 12 Nordeste 25 Nordeste 0 -- -- 83
2019-12-02 17:00:00 14 13 Nordeste 27 Nordeste 0 -- -- 81
2019-12-02 16:00:00 14.6 14 Nordeste 35 Nordeste 0 -- -- 79
2019-12-02 15:00:00 15.6 20 Nordeste 31 Nordeste 0 -- -- 78
2019-12-02 14:00:00 15.5 17 Nordeste 37 Nordeste 0 -- -- 80
2019-12-02 13:00:00 15.4 21 Nordeste 32 Nordeste 0 -- -- 83
2019-12-02 12:00:00 14.4 14 Nordeste 24 Nordeste 0.8 -- -- 94
2019-12-02 11:00:00 13.2 10 Nordeste 21 Nordeste 3.6 -- -- 96
2019-12-02 10:00:00 13.3 12 Nordeste 27 Nordeste 0.8 -- -- 95
2019-12-02 09:00:00 13.1 12 Nordeste 22 Nordeste 0 -- -- 98
2019-12-02 08:00:00 12.3 5 Norte 20 Nordeste 0 -- -- 98
2019-12-02 07:00:00 12.4 11 Nordeste 17 Nordeste 0 -- -- 99
2019-12-02 06:00:00 11.7 8 Norte 11 Norte 0 -- -- 98
2019-12-02 05:00:00 13 0 Calma 8 Norte 0 -- -- 98
2019-12-02 04:00:00 13.5 4 Nordeste 8 Nordeste 0.8 -- -- 98
2019-12-02 03:00:00 13.4 2 Este 13 Nordeste 0 -- -- 98
2019-12-02 02:00:00 13.5 7 Nordeste 15 Nordeste 0 -- -- 98
2019-12-02 01:00:00 13.7 8 Norte 16 Este 0.8 -- -- 97
2019-12-02 00:00:00 13.5 6 Nordeste 13 Este 0 -- -- 97
2019-12-01 23:00:00 13.6 3 Norte 8 Noroeste 0 -- -- 97
2019-12-01 22:00:00 13.3 2 Sudeste 7 Este 0 -- -- 97
2019-12-01 21:00:00 13 3 Sudeste 5 Sudeste 0 -- -- 97
2019-12-01 20:00:00 13.2 4 Sudeste 5 Sur 0 -- -- 95
2019-12-01 19:00:00 12.7 2 Este 5 Nordeste 0 -- -- 93
2019-12-01 18:00:00 14.8 2 Sur 9 Sudoeste 0 -- -- 89
2019-12-01 17:00:00 16.8 6 Sudoeste 19 Sudoeste 0 -- -- 85
2019-12-01 16:00:00 17.4 15 Oeste 21 Sudoeste 0 -- -- 84
2019-12-01 15:00:00 17.7 13 Oeste 21 Sudoeste 0 -- -- 84
2019-12-01 14:00:00 18.4 13 Sudoeste 22 Oeste 0 -- -- 81
2019-12-01 13:00:00 18.7 10 Sudoeste 22 Sudoeste 0 -- -- 80
2019-12-01 12:00:00 18.1 14 Sudoeste 24 Sudoeste 0 -- -- 82
2019-12-01 11:00:00 18 14 Oeste 26 Sudoeste 0 -- -- 83
2019-12-01 10:00:00 16.8 9 Sudoeste 23 Sudoeste 0 -- -- 88
2019-12-01 09:00:00 16.1 9 Sudoeste 17 Sudoeste 0 -- -- 90
2019-12-01 08:00:00 15.9 9 Sudoeste 19 Sudoeste 0 -- -- 89
2019-12-01 07:00:00 15.9 10 Sudoeste 17 Sudoeste 0 -- -- 88
2019-12-01 06:00:00 15.7 8 Sudoeste 20 Sudoeste 0 -- -- 88
2019-12-01 05:00:00 15.9 8 Sudoeste 20 Sur 0 -- -- 87
2019-12-01 04:00:00 16.2 13 Sudoeste 23 Sudoeste 0 -- -- 89
2019-12-01 03:00:00 15.9 12 Sudoeste 22 Sudoeste 0 -- -- 91
2019-12-01 02:00:00 16 15 Sudoeste 22 Sudoeste 0 -- -- 94
2019-12-01 01:00:00 15.2 10 Sur 18 Sur 0 -- -- 97
2019-12-01 00:00:00 13.9 7 Sur 14 Sur 0 -- -- 95
2019-11-30 23:00:00 15.7 6 Sur 14 Sudoeste 0 -- -- 95
2019-11-30 22:00:00 15.8 6 Sudoeste 18 Sudoeste 0 -- -- 94
2019-11-30 21:00:00 16.2 14 Sudoeste 23 Sudoeste 0 -- -- 92
2019-11-30 20:00:00 16.2 11 Sudoeste 21 Sudoeste 0 -- -- 91
2019-11-30 19:00:00 16.3 10 Sudoeste 21 Sudoeste 0 -- -- 90
2019-11-30 18:00:00 16.2 13 Sudoeste 23 Sudoeste 0 -- -- 90
2019-11-30 17:00:00 16.7 9 Sudoeste 22 Sudoeste 0 -- -- 89
2019-11-30 16:00:00 18.3 12 Sudoeste 21 Sudoeste 0 -- -- 84
2019-11-30 15:00:00 18.1 13 Sudoeste 22 Sudoeste 0 -- -- 84
2019-11-30 14:00:00 17.9 11 Sudoeste 21 Sudoeste 0 -- -- 86
2019-11-30 13:00:00 17.6 12 Sudoeste 19 Sudoeste 0 -- -- 87
2019-11-30 12:00:00 17 8 Sudoeste 15 Oeste 0 -- -- 97
2019-11-30 11:00:00 13.7 3 Noroeste 5 Oeste 0 -- -- 100
2019-11-30 10:00:00 11.7 0 Calma 3 Norte 0 -- -- 100
2019-11-30 09:00:00 10 0 Calma 3 Sur 0.2 -- -- 100
2019-11-30 08:00:00 9.7 0 Calma 3 Nordeste 0 -- -- 100
2019-11-30 07:00:00 9.4 0 Calma 0 Calma 0 -- -- 99
2019-11-30 06:00:00 8.9 0 Calma 2 Sur 0 -- -- 99
2019-11-30 05:00:00 8.4 0 Calma 3 Norte 0 -- -- 99
2019-11-30 04:00:00 8.4 0 Calma 0 Calma 0 -- -- 98
2019-11-30 03:00:00 9.6 0 Calma 2 Sur 0 -- -- 98
2019-11-30 02:00:00 9.1 0 Calma 5 Noroeste 0 -- -- 98
2019-11-30 01:00:00 8.9 0 Calma 5 Sudeste 0 -- -- 99
2019-11-30 00:00:00 8.4 0 Calma 2 Nordeste 0 -- -- 98
2019-11-29 23:00:00 9.2 0 Calma 4 Sudeste 0 -- -- 97
2019-11-29 22:00:00 9.8 0 Calma 4 Sudeste 0 -- -- 97
2019-11-29 21:00:00 10.7 0 Calma 5 Norte 0 -- -- 96
2019-11-29 20:00:00 11.9 0 Calma 6 Sudeste 0 -- -- 96
2019-11-29 19:00:00 12.7 5 Sudeste 9 Sudeste 0 -- -- 94
2019-11-29 18:00:00 15 4 Sur 8 Oeste 0 -- -- 91
2019-11-29 17:00:00 17.3 6 Oeste 12 Sudoeste 0 -- -- 86
2019-11-29 16:00:00 17.5 5 Sudoeste 17 Sudoeste 0 -- -- 85
2019-11-29 15:00:00 17.8 14 Oeste 22 Oeste 0 -- -- 83
2019-11-29 14:00:00 18.8 13 Oeste 23 Oeste 0 -- -- 78
2019-11-29 13:00:00 18.5 17 Oeste 28 Oeste 0 -- -- 81
2019-11-29 12:00:00 18.1 16 Oeste 28 Oeste 0 -- -- 81
2019-11-29 11:00:00 17.3 15 Oeste 27 Oeste 0 -- -- 82
2019-11-29 10:00:00 17 18 Oeste 29 Oeste 0 -- -- 84
2019-11-29 09:00:00 16.2 15 Oeste 26 Oeste 0 -- -- 85
2019-11-29 08:00:00 15.7 12 Oeste 24 Oeste 0 -- -- 87
2019-11-29 07:00:00 15.8 16 Oeste 28 Oeste 0 -- -- 86
2019-11-29 06:00:00 16 20 Oeste 32 Oeste 0 -- -- 84
2019-11-29 05:00:00 16.2 14 Oeste 40 Oeste 0 -- -- 81
2019-11-29 04:00:00 16.2 27 Oeste 45 Oeste 0 -- -- 79
2019-11-29 03:00:00 16.3 29 Oeste 39 Oeste 0 -- -- 77
2019-11-29 02:00:00 16.2 23 Oeste 39 Oeste 0 -- -- 79
2019-11-29 01:00:00 16.2 18 Oeste 32 Oeste 0 -- -- 84
2019-11-29 00:00:00 16.3 23 Oeste 38 Oeste 0 -- -- 84
2019-11-28 23:00:00 16.4 20 Oeste 33 Sudoeste 0 -- -- 83
2019-11-28 22:00:00 15.8 10 Sudoeste 24 Oeste 0 -- -- 86
2019-11-28 21:00:00 15.8 9 Sudoeste 22 Oeste 0 -- -- 84
2019-11-28 20:00:00 15.7 9 Sudoeste 17 Sudoeste 0 -- -- 85
2019-11-28 19:00:00 16 5 Sudoeste 19 Oeste 0 -- -- 82
2019-11-28 18:00:00 16.2 11 Sudoeste 27 Oeste 0 -- -- 81
2019-11-28 17:00:00 16.5 17 Oeste 40 Oeste 0 -- -- 80
2019-11-28 16:00:00 17.3 24 Oeste 48 Oeste 0 -- -- 78
2019-11-28 15:00:00 18 27 Oeste 39 Oeste 0 -- -- 77
2019-11-28 14:00:00 18.2 23 Oeste 39 Oeste 0 -- -- 75
2019-11-28 13:00:00 18.2 27 Oeste 38 Oeste 0 -- -- 76
2019-11-28 12:00:00 18.3 27 Oeste 37 Oeste 0 -- -- 76
2019-11-28 11:00:00 18.1 23 Oeste 33 Oeste 0 -- -- 73
2019-11-28 10:00:00 17.2 15 Oeste 24 Oeste 0 -- -- 78
2019-11-28 09:00:00 16 11 Noroeste 30 Oeste 0 -- -- 82
2019-11-28 08:00:00 14.4 13 Oeste 22 Oeste 0 -- -- 87
2019-11-28 07:00:00 14.8 16 Oeste 23 Oeste 0 -- -- 89
2019-11-28 06:00:00 10.2 0 Calma 6 Noroeste 0 -- -- 93
2019-11-28 05:00:00 11.8 0 Calma 12 Oeste 0 -- -- 90
2019-11-28 04:00:00 15.6 11 Oeste 24 Oeste 0 -- -- 84
2019-11-28 03:00:00 15.9 14 Oeste 23 Oeste 0 -- -- 81
2019-11-28 02:00:00 16.2 16 Oeste 32 Oeste 0 -- -- 78
2019-11-28 01:00:00 16.6 21 Oeste 35 Oeste 0 -- -- 74
2019-11-28 00:00:00 16.8 17 Oeste 27 Oeste 0 -- -- 74
2019-11-27 23:00:00 16.9 20 Oeste 29 Oeste 0 -- -- 75
2019-11-27 22:00:00 16.4 14 Oeste 27 Oeste 0 -- -- 85
2019-11-27 21:00:00 16 11 Oeste 18 Oeste 0 -- -- 92
2019-11-27 20:00:00 14 0 Calma 6 Oeste 0 -- -- 92
2019-11-27 19:00:00 15.4 2 Noroeste 15 Oeste 0 -- -- 89
2019-11-27 18:00:00 16.8 6 Oeste 22 Oeste 0 -- -- 83
2019-11-27 17:00:00 18.3 15 Oeste 27 Oeste 0 -- -- 77
2019-11-27 16:00:00 19.2 16 Oeste 41 Oeste 0 -- -- 76
2019-11-27 15:00:00 18.9 29 Oeste 53 Oeste 0 -- -- 76
2019-11-27 14:00:00 19.2 27 Oeste 50 Oeste 0 -- -- 74
2019-11-27 06:00:00 -- -- -- -- -- -- -- -- --
2019-11-27 05:00:00 16.8 16 Sudoeste 33 Sudoeste 0 -- -- 92
2019-11-27 04:00:00 16.8 15 Sudoeste 37 Oeste 0 -- -- 91
2019-11-27 03:00:00 16.7 14 Sudoeste 32 Sudoeste 0 -- -- 92
2019-11-27 02:00:00 16.7 17 Sudoeste 38 Sudoeste 0 -- -- 91
2019-11-27 01:00:00 16.6 17 Sudoeste 37 Sudoeste 0 -- -- 93
2019-11-27 00:00:00 16.3 17 Sudoeste 32 Sudoeste 0 -- -- 93
2019-11-26 23:00:00 16.3 18 Sudoeste 38 Sudoeste 0 -- -- 93
2019-11-26 22:00:00 16.4 18 Sudoeste 33 Sudoeste 0 -- -- 93
2019-11-26 21:00:00 16.5 13 Sudoeste 28 Sudoeste 0 -- -- 91
2019-11-26 20:00:00 16.6 12 Sudoeste 27 Sudoeste 0 -- -- 89
2019-11-26 19:00:00 16.5 17 Sudoeste 28 Sudoeste 0 -- -- 90
2019-11-26 18:00:00 16.4 15 Sudoeste 26 Oeste 0 -- -- 86
2019-11-26 17:00:00 17.5 9 Sudoeste 21 Oeste 0 -- -- 85
2019-11-26 16:00:00 18.7 13 Sudoeste 26 Sudoeste 0 -- -- 82
2019-11-26 15:00:00 18.8 13 Sudoeste 28 Sudoeste 0 -- -- 78
2019-11-26 14:00:00 19 14 Oeste 24 Oeste 0 -- -- 76
2019-11-26 13:00:00 18.4 15 Oeste 26 Oeste 0 -- -- 80
2019-11-26 12:00:00 18.3 10 Sudoeste 20 Sudoeste 0 -- -- 85
2019-11-26 11:00:00 17.9 9 Sudoeste 16 Sur 0 -- -- 93
2019-11-26 10:00:00 11.6 0 Calma 2 Sur 0 -- -- 98
2019-11-26 09:00:00 8.7 0 Calma 5 Nordeste 0 -- -- 99
2019-11-26 08:00:00 6.5 0 Calma 3 Sudeste 0 -- -- 99
2019-11-26 07:00:00 6 0 Calma 2 Noroeste 0 -- -- 98
2019-11-26 06:00:00 6.4 0 Calma 3 Sudeste 0 -- -- 98
2019-11-26 05:00:00 6.7 0 Calma 3 Norte 0 -- -- 97
2019-11-26 04:00:00 7.5 3 Norte 4 Norte 0 -- -- 99
2019-11-26 03:00:00 7.5 0 Calma 4 Nordeste 0 -- -- 98
2019-11-26 02:00:00 7.3 0 Calma 3 Oeste 0 -- -- 97
2019-11-26 01:00:00 7.8 0 Calma 4 Sudeste 0 -- -- 96
2019-11-26 00:00:00 8.5 3 Este 5 Nordeste 0 -- -- 95
2019-11-25 23:00:00 9.2 2 Noroeste 7 Sudeste 0 -- -- 96
2019-11-25 22:00:00 9.2 4 Sudeste 6 Sudeste 0 -- -- 95
2019-11-25 21:00:00 10 4 Sudeste 5 Sudeste 0 -- -- 93
2019-11-25 20:00:00 11 3 Este 4 Sudeste 0 -- -- 92
2019-11-25 19:00:00 13.4 0 Calma 15 Oeste 0 -- -- 87
2019-11-25 18:00:00 15.9 13 Oeste 22 Oeste 0 -- -- 85
2019-11-25 17:00:00 17 14 Oeste 31 Oeste 0 -- -- 83
2019-11-25 16:00:00 17.4 22 Oeste 32 Oeste 0 -- -- 82
2019-11-25 15:00:00 18 23 Oeste 46 Oeste 0 -- -- 77
2019-11-25 14:00:00 18 24 Oeste 36 Oeste 0 -- -- 77
2019-11-25 13:00:00 17.9 28 Oeste 37 Oeste 0 -- -- 77
2019-11-25 12:00:00 17.5 27 Oeste 35 Oeste 0 -- -- 76
2019-11-25 11:00:00 17.2 24 Oeste 30 Oeste 0 -- -- 77
2019-11-25 10:00:00 14.9 5 Noroeste 22 Oeste 0 -- -- 85
2019-11-25 09:00:00 9.7 2 Noroeste 5 Sudeste 0 -- -- 96
2019-11-25 08:00:00 6.4 3 Nordeste 7 Norte 0 -- -- 96
2019-11-25 07:00:00 6.1 0 Calma 8 Sudeste 0 -- -- 96
2019-11-25 06:00:00 5.6 0 Calma 7 Sur 0 -- -- 94
2019-11-25 05:00:00 5.8 3 Sudeste 5 Sudeste 0 -- -- 93
2019-11-25 04:00:00 6.5 3 Nordeste 10 Noroeste 0 -- -- 90
2019-11-25 03:00:00 7.2 0 Calma 13 Norte 0 -- -- 88
2019-11-25 02:00:00 9.5 8 Norte 21 Oeste 0 -- -- 83
2019-11-25 01:00:00 12.2 13 Oeste 18 Oeste 0 -- -- 80
2019-11-25 00:00:00 11.8 10 Oeste 16 Oeste 0 -- -- 85
2019-11-24 23:00:00 9.2 0 Calma 12 Oeste 0 -- -- 85
2019-11-24 22:00:00 12.4 8 Oeste 20 Oeste 0 -- -- 78
2019-11-24 21:00:00 13 10 Oeste 17 Oeste 0 -- -- 77
2019-11-24 20:00:00 11.2 9 Noroeste 12 Noroeste 0 -- -- 85
2019-11-24 19:00:00 12.4 10 Noroeste 17 Noroeste 0 -- -- 78
2019-11-24 18:00:00 12.9 7 Oeste 11 Oeste 0 -- -- 75
2019-11-24 17:00:00 14.5 8 Noroeste 30 Oeste 0 -- -- 72
2019-11-24 16:00:00 15.8 27 Noroeste 41 Oeste 0 -- -- 63
2019-11-24 15:00:00 16.5 23 Oeste 40 Noroeste 0 -- -- 59
2019-11-24 14:00:00 16.1 22 Noroeste 40 Noroeste 0 -- -- 63
2019-11-24 13:00:00 15.9 22 Noroeste 41 Noroeste 0 -- -- 61
2019-11-24 12:00:00 15.6 26 Noroeste 42 Noroeste 0 -- -- 62
2019-11-24 11:00:00 15.3 31 Noroeste 46 Noroeste 0 -- -- 61
2019-11-24 10:00:00 14.6 33 Noroeste 43 Noroeste 0 -- -- 64
2019-11-24 09:00:00 13.7 27 Noroeste 42 Noroeste 0 -- -- 66
2019-11-24 08:00:00 12.6 19 Noroeste 33 Noroeste 0 -- -- 69
2019-11-24 07:00:00 12.5 15 Noroeste 31 Oeste 0 -- -- 69
2019-11-24 06:00:00 12.6 21 Noroeste 35 Oeste 0 -- -- 71
2019-11-24 05:00:00 13.2 27 Noroeste 42 Noroeste 0 -- -- 67
2019-11-24 04:00:00 13.5 28 Noroeste 43 Oeste 0 -- -- 66
2019-11-24 03:00:00 13.5 22 Noroeste 31 Noroeste 0 -- -- 67
2019-11-24 02:00:00 13.7 22 Noroeste 37 Oeste 0 -- -- 67
2019-11-24 01:00:00 13.8 24 Noroeste 36 Noroeste 0 -- -- 66
2019-11-24 00:00:00 13.8 15 Oeste 27 Oeste 0 -- -- 62
2019-11-23 23:00:00 14 7 Noroeste 39 Noroeste 0 -- -- 68
2019-11-23 22:00:00 14.6 26 Noroeste 51 Noroeste 0 -- -- 61
2019-11-23 21:00:00 14.6 22 Noroeste 49 Noroeste 0 -- -- 62
2019-11-23 20:00:00 14.2 22 Oeste 55 Oeste 0 -- -- 65
2019-11-23 19:00:00 14.6 23 Noroeste 37 Noroeste 0 -- -- 66
2019-11-23 18:00:00 14.6 23 Oeste 35 Oeste 0 -- -- 71
2019-11-23 17:00:00 14 18 Noroeste 44 Noroeste 0.2 -- -- 72
2019-11-23 16:00:00 14.8 21 Noroeste 36 Oeste 0 -- -- 75
2019-11-23 15:00:00 13.2 14 Oeste 32 Oeste 0.4 -- -- 88
2019-11-23 14:00:00 12.6 20 Oeste 58 Noroeste 1.2 -- -- 91
2019-11-23 13:00:00 14 46 Noroeste 71 Oeste 0.4 -- -- 76
2019-11-23 12:00:00 16.3 40 Oeste 67 Oeste 0 -- -- 70
2019-11-23 11:00:00 16.3 47 Oeste 70 Oeste 0 -- -- 67
2019-11-23 10:00:00 16.5 44 Oeste 59 Oeste 0 -- -- 67
2019-11-23 09:00:00 16.5 33 Oeste 57 Oeste 0 -- -- 69
2019-11-23 08:00:00 16.6 21 Oeste 35 Sudoeste 0 -- -- 79
2019-11-23 07:00:00 16.7 15 Sudoeste 32 Sudoeste 0 -- -- 84
2019-11-23 06:00:00 16.7 16 Sudoeste 32 Sudoeste 0 -- -- 87
2019-11-23 05:00:00 16.9 21 Sudoeste 50 Oeste 0.2 -- -- 89
2019-11-23 04:00:00 17.4 22 Sudoeste 51 Sudoeste 0 -- -- 93
2019-11-23 03:00:00 17.4 27 Sudoeste 57 Sudoeste 1 -- -- 92
2019-11-23 02:00:00 16.9 26 Sudoeste 53 Sudoeste 0.2 -- -- 93
2019-11-23 01:00:00 16 20 Sudoeste 46 Sudoeste 1 -- -- 95
2019-11-23 00:00:00 15.8 31 Sur 55 Sur 2.8 -- -- 96
2019-11-22 23:00:00 15.7 26 Sur 55 Sur 2.2 -- -- 95
2019-11-22 22:00:00 15.2 23 Sur 51 Sur 2.8 -- -- 93
2019-11-22 21:00:00 16.2 22 Sur 49 Sur 0.2 -- -- 88
2019-11-22 20:00:00 16.9 20 Sur 33 Sur 0 -- -- 85
2019-11-22 19:00:00 16.9 22 Sur 44 Sur 0 -- -- 82
2019-11-22 18:00:00 16.9 14 Sur 28 Sur 0 -- -- 85
2019-11-22 17:00:00 17 16 Sur 36 Sudoeste 0 -- -- 84
2019-11-22 16:00:00 17.1 17 Sudoeste 43 Sudoeste 0 -- -- 84
2019-11-22 15:00:00 17.6 20 Sudoeste 39 Sudoeste 0 -- -- 83
2019-11-22 14:00:00 17.2 22 Sudoeste 44 Sudoeste 0.4 -- -- 85
2019-11-22 13:00:00 17 21 Sudoeste 39 Sudoeste 0.2 -- -- 87
2019-11-22 12:00:00 18 21 Sudoeste 40 Sudoeste 0.2 -- -- 81
2019-11-22 11:00:00 16.9 14 Sur 48 Sudoeste 0 -- -- 88
2019-11-22 10:00:00 16.2 19 Sudoeste 38 Sudoeste 4.6 -- -- 94
2019-11-22 09:00:00 14.6 12 Sudoeste 30 Oeste 12.4 -- -- 99
2019-11-22 08:00:00 13 2 Sudoeste 10 Sudeste 8.8 -- -- 99
2019-11-22 07:00:00 12.6 9 Sudeste 14 Sudeste 0.6 -- -- 98
2019-11-22 06:00:00 12.6 8 Sudeste 16 Sudeste 3.6 -- -- 98
2019-11-22 05:00:00 12.8 4 Sudeste 10 Este 3.2 -- -- 97
2019-11-22 04:00:00 12.7 6 Sudeste 10 Este 1.8 -- -- 97
2019-11-22 03:00:00 10.9 4 Nordeste 8 Norte 0 -- -- 96
2019-11-22 02:00:00 11.1 0 Calma 5 Norte 0 -- -- 93
2019-11-22 01:00:00 11.7 3 Norte 14 Sudoeste 0 -- -- 90
2019-11-22 00:00:00 15.7 9 Sudoeste 21 Sudoeste 0 -- -- 80
2019-11-21 23:00:00 15.7 12 Sudoeste 21 Sudoeste 0 -- -- 78
2019-11-21 22:00:00 15.6 9 Sudoeste 21 Sudoeste 0 -- -- 78
2019-11-21 21:00:00 15.5 10 Sudoeste 21 Sudoeste 0 -- -- 73
2019-11-21 20:00:00 14.9 7 Sudoeste 17 Sudoeste 0 -- -- 76
2019-11-21 19:00:00 15 8 Oeste 22 Oeste 0 -- -- 74
2019-11-21 18:00:00 15.1 15 Oeste 26 Oeste 0 -- -- 71
2019-11-21 17:00:00 15.4 20 Oeste 29 Oeste 0 -- -- 68
2019-11-21 16:00:00 15.6 23 Oeste 43 Oeste 0 -- -- 70
2019-11-21 15:00:00 15.7 27 Oeste 40 Oeste 0 -- -- 69
2019-11-21 14:00:00 16.6 26 Oeste 45 Oeste 0 -- -- 68
2019-11-21 13:00:00 16.1 23 Oeste 38 Oeste 0 -- -- 69
2019-11-21 12:00:00 16.6 21 Oeste 36 Sudoeste 0 -- -- 67
2019-11-21 11:00:00 16.5 19 Oeste 35 Oeste 0.2 -- -- 68
2019-11-21 10:00:00 15.7 18 Oeste 27 Oeste 0 -- -- 72
2019-11-21 09:00:00 11.8 2 Nordeste 12 Norte 0 -- -- 90
2019-11-21 08:00:00 11.3 8 Noroeste 24 Oeste 0 -- -- 87
2019-11-21 07:00:00 10.8 7 Noroeste 13 Noroeste 0 -- -- 94
2019-11-21 06:00:00 11.1 2 Noroeste 13 Sudoeste 0 -- -- 91
2019-11-21 05:00:00 12.5 8 Sudoeste 23 Sudoeste 0.2 -- -- 89
2019-11-21 04:00:00 11.9 13 Sudoeste 28 Sudoeste 1 -- -- 89
2019-11-21 03:00:00 12.1 5 Sur 39 Sudoeste 0.4 -- -- 92
2019-11-21 02:00:00 8.8 3 Sudeste 8 Este 0 -- -- 96
2019-11-21 01:00:00 8.6 4 Nordeste 13 Noroeste 0 -- -- 96
2019-11-21 00:00:00 7.9 3 Norte 10 Norte 0 -- -- 95
2019-11-20 23:00:00 9.3 3 Norte 15 Sur 0 -- -- 90
2019-11-20 22:00:00 13.8 7 Sudoeste 19 Sudoeste 0 -- -- 77
2019-11-20 21:00:00 10.4 6 Sur 15 Sudoeste 0 -- -- 97
2019-11-20 20:00:00 10.4 6 Sudeste 9 Sudeste 0 -- -- 93
2019-11-20 19:00:00 11.4 6 Sudeste 26 Sur 0.4 -- -- 91
2019-11-20 18:00:00 11.9 7 Sudeste 12 Sudeste 0 -- -- 91
2019-11-20 17:00:00 12.9 6 Sudeste 10 Sudeste 0 -- -- 89
2019-11-20 16:00:00 13.3 8 Sudeste 13 Sudeste 0 -- -- 89
2019-11-20 15:00:00 12.9 10 Sudeste 15 Sur 0 -- -- 90
2019-11-20 14:00:00 13.5 9 Sur 15 Sur 0 -- -- 84
2019-11-20 13:00:00 12.5 4 Este 6 Sudeste 0.2 -- -- 94
2019-11-20 12:00:00 9.6 0 Calma 4 Norte 0 -- -- 95
2019-11-20 11:00:00 8.5 0 Calma 5 Norte 0 -- -- 97
2019-11-20 10:00:00 6.9 2 Norte 5 Noroeste 0 -- -- 99
2019-11-20 09:00:00 4.6 2 Sudeste 3 Sur 0 -- -- 99
2019-11-20 08:00:00 2.7 0 Calma 2 Norte 0 -- -- 99
2019-11-20 07:00:00 1.9 0 Calma 2 Sudeste 0 -- -- 98
2019-11-20 06:00:00 1.5 0 Calma 2 Norte 0 -- -- 98
2019-11-20 05:00:00 1.9 0 Calma 2 Norte 0 -- -- 97
2019-11-20 04:00:00 2.4 0 Calma 2 Sudeste 0 -- -- 97
2019-11-20 03:00:00 3 0 Calma 5 Sudeste 0 -- -- 97
2019-11-20 02:00:00 2.9 0 Calma -- -- 0 -- -- 97
2019-11-20 01:00:00 2.9 0 Calma -- -- 0 -- -- 96
2019-11-20 00:00:00 3.2 0 Calma -- -- 0 -- -- 96
2019-11-19 23:00:00 3.7 0 Calma -- -- 0 -- -- 95
2019-11-19 22:00:00 4.3 0 Calma -- -- 0 -- -- 94
2019-11-19 21:00:00 5 0 Calma -- -- 0 -- -- 93
2019-11-19 20:00:00 5.9 0 Calma 3 Sudeste 0 -- -- 92
2019-11-19 19:00:00 7.4 2 Sudeste 3 Sudeste 0 -- -- 88
2019-11-19 18:00:00 10.5 0 Calma 10 Noroeste 0 -- -- 79
2019-11-19 17:00:00 13.6 8 Noroeste 16 Oeste 0 -- -- 67
2019-11-19 16:00:00 16.1 5 Oeste 13 Oeste 0 -- -- 63
2019-11-19 15:00:00 15.7 3 Norte 7 Oeste 0 -- -- 64
2019-11-19 14:00:00 14.1 0 Calma 14 Noroeste 0.2 -- -- 79
2019-11-19 13:00:00 12.3 12 Norte 30 Noroeste 0 -- -- 78
2019-11-19 12:00:00 13.9 5 Noroeste 15 Oeste 0 -- -- 69
2019-11-19 11:00:00 13 4 Sudoeste 7 Sudoeste 0 -- -- 77
2019-11-19 10:00:00 9 0 Calma 3 Noroeste 0 -- -- 94
2019-11-19 09:00:00 6 0 Calma 3 Norte 0 -- -- 97
2019-11-19 08:00:00 3.5 0 Calma 3 Sudeste 0 -- -- 97
2019-11-19 07:00:00 3.9 0 Calma 4 Sudeste 0 -- -- 96
2019-11-19 06:00:00 4.4 0 Calma 2 Sudeste 0 -- -- 96
2019-11-19 05:00:00 6.3 0 Calma 5 Sudeste 0 -- -- 95
2019-11-19 04:00:00 5.7 3 Sudeste 4 Sudeste 0 -- -- 93
2019-11-19 03:00:00 8.4 0 Calma 6 Noroeste 0 -- -- 90
2019-11-19 02:00:00 9.6 5 Noroeste 16 Noroeste 0 -- -- 89
2019-11-19 01:00:00 9.4 13 Noroeste 18 Noroeste 0 -- -- 93
2019-11-19 00:00:00 5.8 0 Calma 5 Sudeste 0 -- -- 95
2019-11-18 23:00:00 5.3 3 Sudeste 6 Nordeste 0 -- -- 92
2019-11-18 22:00:00 6.6 2 Este 8 Noroeste 0 -- -- 89
2019-11-18 21:00:00 9.8 5 Noroeste 14 Noroeste 0 -- -- 82
2019-11-18 20:00:00 10.8 11 Norte 18 Noroeste 0 -- -- 81
2019-11-18 19:00:00 10.4 4 Norte 15 Norte 0 -- -- 83
2019-11-18 18:00:00 11.5 11 Norte 37 Norte 0 -- -- 77
2019-11-18 17:00:00 12.8 29 Norte 42 Norte 0 -- -- 74
2019-11-18 16:00:00 13.9 24 Norte 45 Norte 0 -- -- 76
2019-11-18 15:00:00 14.4 25 Norte 39 Norte 0 -- -- 76
2019-11-18 14:00:00 14.4 19 Norte 33 Norte 0 -- -- 78
2019-11-18 13:00:00 14.2 17 Norte 23 Norte 0 -- -- 77
2019-11-18 12:00:00 13.6 10 Noroeste 18 Norte 0 -- -- 80
2019-11-18 11:00:00 13.3 11 Norte 17 Norte 0 -- -- 86
2019-11-18 10:00:00 11.6 5 Noroeste 11 Norte 0.2 -- -- 95
2019-11-18 09:00:00 11.2 6 Norte 9 Nordeste 0 -- -- 95
2019-11-18 08:00:00 11.3 6 Oeste 8 Oeste 0 -- -- 95
2019-11-18 07:00:00 11.8 4 Norte 13 Noroeste 0 -- -- 93
2019-11-18 06:00:00 12.3 9 Noroeste 27 Noroeste 0.2 -- -- 90
2019-11-18 05:00:00 14 24 Oeste 32 Oeste 0 -- -- 83
2019-11-18 04:00:00 13.3 4 Sudoeste 25 Oeste 0.4 -- -- 90
2019-11-18 03:00:00 13 12 Oeste 28 Oeste 0.2 -- -- 90
2019-11-18 02:00:00 13.2 2 Noroeste 22 Oeste 0.4 -- -- 87
2019-11-18 01:00:00 14.1 4 Sur 35 Oeste 2.2 -- -- 85
2019-11-18 00:00:00 16.2 17 Sudoeste 31 Sudoeste 0 -- -- 68
2019-11-17 23:00:00 15.9 14 Sudoeste 35 Sudoeste 0 -- -- 65
2019-11-17 22:00:00 15.6 15 Sudoeste 35 Oeste 0 -- -- 57
2019-11-17 21:00:00 15.4 23 Oeste 38 Oeste 0 -- -- 62
2019-11-17 20:00:00 15.2 24 Sudoeste 37 Sudoeste 0 -- -- 64
2019-11-17 19:00:00 14.8 21 Oeste 36 Oeste 0 -- -- 62
2019-11-17 18:00:00 14.6 28 Oeste 42 Oeste 0 -- -- 61
2019-11-17 17:00:00 15 28 Oeste 45 Oeste 0 -- -- 64
2019-11-17 16:00:00 15.6 26 Oeste 42 Oeste 0 -- -- 58
2019-11-17 15:00:00 15.5 33 Oeste 47 Oeste 0 -- -- 59
2019-11-17 14:00:00 15.1 29 Oeste 44 Oeste 0 -- -- 61
2019-11-17 13:00:00 15.1 29 Oeste 43 Oeste 0 -- -- 61
2019-11-17 12:00:00 15.4 26 Oeste 43 Oeste 0 -- -- 61
2019-11-17 11:00:00 14.8 28 Oeste 43 Oeste 0 -- -- 56
2019-11-17 10:00:00 14.6 28 Oeste 44 Oeste 0 -- -- 58
2019-11-17 09:00:00 11.6 17 Oeste 21 Oeste 0 -- -- 69
2019-11-17 08:00:00 6 4 Norte 7 Norte 0 -- -- 87
2019-11-17 07:00:00 6.6 0 Calma 7 Noroeste 0 -- -- 83
2019-11-17 06:00:00 9.8 9 Noroeste 20 Noroeste 0 -- -- 72
2019-11-17 05:00:00 10.1 10 Oeste 28 Noroeste 0 -- -- 69
2019-11-17 04:00:00 10.5 14 Noroeste 26 Noroeste 0 -- -- 72
2019-11-17 03:00:00 10.9 13 Noroeste 22 Noroeste 0 -- -- 75
2019-11-17 02:00:00 10.6 15 Noroeste 23 Noroeste 0 -- -- 80
2019-11-17 01:00:00 10.2 23 Noroeste 33 Noroeste 0.2 -- -- 82
2019-11-17 00:00:00 10.4 16 Noroeste 23 Noroeste 0 -- -- 74
2019-11-16 23:00:00 9.6 12 Noroeste 26 Noroeste 0 -- -- 79
2019-11-16 22:00:00 5.6 0 Calma 8 Noroeste 0 -- -- 91
2019-11-16 21:00:00 7.1 3 Norte 8 Noroeste 0 -- -- 92
2019-11-16 20:00:00 9 5 Noroeste 13 Noroeste 0 -- -- 88
2019-11-16 19:00:00 9.7 7 Noroeste 15 Oeste 0 -- -- 86
2019-11-16 18:00:00 10.1 4 Noroeste 12 Norte 0 -- -- 83
2019-11-16 17:00:00 11.5 8 Norte 23 Norte 0 -- -- 75
2019-11-16 16:00:00 12.1 17 Norte 30 Norte 0 -- -- 71
2019-11-16 15:00:00 13 22 Norte 32 Norte 0 -- -- 72
2019-11-16 14:00:00 13 10 Norte 14 Norte 0 -- -- 72
2019-11-16 13:00:00 12.3 9 Nordeste 13 Norte 0 -- -- 72
2019-11-16 12:00:00 11 3 Norte 9 Norte 0 -- -- 81
2019-11-16 11:00:00 9.6 4 Nordeste 8 Norte 0 -- -- 84
2019-11-16 10:00:00 8.4 4 Norte 10 Nordeste 0 -- -- 88
2019-11-16 09:00:00 7.6 0 Calma 9 Norte 0 -- -- 90
2019-11-16 08:00:00 6.9 4 Norte 11 Norte 0 -- -- 91
2019-11-16 07:00:00 6.5 3 Noroeste 6 Noroeste 0 -- -- 91
2019-11-16 06:00:00 7 5 Noroeste 16 Nordeste 0 -- -- 89
2019-11-16 05:00:00 8.3 10 Nordeste 22 Nordeste 0 -- -- 82
2019-11-16 04:00:00 7.1 10 Nordeste 15 Noroeste 0 -- -- 88
2019-11-16 03:00:00 4.8 3 Norte 22 Noroeste 0 -- -- 96
2019-11-16 02:00:00 4.1 0 Calma 4 Nordeste 0 -- -- 95
2019-11-16 01:00:00 4.7 0 Calma 4 Sudeste 0 -- -- 94
2019-11-16 00:00:00 5.4 2 Sur 5 Norte 0 -- -- 92
2019-11-15 23:00:00 7.3 3 Norte 7 Norte 0 -- -- 90
2019-11-15 22:00:00 8.1 3 Sudeste 8 Nordeste 0 -- -- 85
2019-11-15 21:00:00 9.3 2 Sudeste 8 Este 0 -- -- 82
2019-11-15 20:00:00 9.3 2 Este 9 Norte 0 -- -- 83
2019-11-15 19:00:00 10.4 0 Calma 17 Noroeste 0 -- -- 76
2019-11-15 18:00:00 12.4 12 Oeste 36 Oeste 0 -- -- 69
2019-11-15 17:00:00 12.8 26 Oeste 40 Oeste 0 -- -- 66
2019-11-15 16:00:00 14.1 18 Oeste 33 Sudoeste 0 -- -- 58
2019-11-15 15:00:00 14.5 20 Oeste 29 Oeste 0 -- -- 59
2019-11-15 14:00:00 14.3 15 Oeste 29 Oeste 0 -- -- 63
2019-11-15 13:00:00 14.4 17 Oeste 29 Oeste 0 -- -- 60
2019-11-15 12:00:00 13.3 17 Oeste 26 Oeste 0 -- -- 68
2019-11-15 11:00:00 11.2 5 Noroeste 14 Noroeste 0 -- -- 83
2019-11-15 10:00:00 10 12 Oeste 45 Oeste 3.6 -- -- 85
2019-11-15 09:00:00 12.5 16 Oeste 51 Oeste 0 -- -- 73
2019-11-15 08:00:00 13.7 34 Oeste 55 Oeste 0 -- -- 64
2019-11-15 07:00:00 13.7 34 Oeste 60 Sudoeste 0 -- -- 62
2019-11-15 06:00:00 13.7 32 Oeste 50 Oeste 0 -- -- 62
2019-11-15 05:00:00 14 34 Oeste 53 Oeste 0 -- -- 59
2019-11-15 04:00:00 13.9 25 Oeste 36 Oeste 0 -- -- 62
2019-11-15 03:00:00 8.9 0 Calma 16 Noroeste 0 -- -- 90
2019-11-15 02:00:00 8.2 8 Sudeste 12 Sudeste 0 -- -- 97
2019-11-15 01:00:00 6.7 0 Calma 4 Sudeste 0 -- -- 94
2019-11-15 00:00:00 8.3 0 Calma 5 Sudeste 0 -- -- 93
2019-11-14 23:00:00 8.8 3 Este 9 Nordeste 0 -- -- 89
2019-11-14 22:00:00 10.6 3 Este 8 Norte 0 -- -- 90
2019-11-14 21:00:00 11.7 6 Norte 32 Oeste 0.2 -- -- 86
2019-11-14 20:00:00 14.2 23 Oeste 39 Oeste 0 -- -- 68
2019-11-14 19:00:00 12.9 18 Noroeste 29 Oeste 0 -- -- 73
2019-11-14 18:00:00 12.4 10 Noroeste 38 Noroeste 0.6 -- -- 90
2019-11-14 17:00:00 14.4 31 Oeste 44 Noroeste 0.2 -- -- 76
2019-11-14 16:00:00 16.6 34 Oeste 53 Oeste 0 -- -- 70
2019-11-14 15:00:00 17.1 33 Oeste 51 Oeste 0 -- -- 70
2019-11-14 14:00:00 17.9 29 Oeste 48 Sudoeste 0 -- -- 80
2019-11-14 13:00:00 18.3 30 Sudoeste 53 Sudoeste 0 -- -- 79
2019-11-14 12:00:00 18.3 26 Sudoeste 53 Sudoeste 0 -- -- 78
2019-11-14 11:00:00 18.1 29 Sudoeste 49 Sudoeste 0.2 -- -- 84
2019-11-14 10:00:00 18 24 Sudoeste 42 Sudoeste 0 -- -- 85
2019-11-14 09:00:00 17.6 22 Sudoeste 33 Sudoeste 0 -- -- 87
2019-11-14 08:00:00 16.9 25 Sudoeste 41 Sur 0 -- -- 83
2019-11-14 07:00:00 16.1 21 Sudoeste 36 Sudoeste 0 -- -- 77
2019-11-14 06:00:00 15.5 18 Sudoeste 30 Sudoeste 0 -- -- 80
2019-11-14 05:00:00 11.9 12 Sudoeste 21 Sur 0 -- -- 100
2019-11-14 04:00:00 5.5 2 Nordeste 5 Nordeste 0 -- -- 98
2019-11-14 03:00:00 5.3 0 Calma 6 Norte 0 -- -- 98
2019-11-14 02:00:00 4.7 3 Sur 6 Noroeste 0 -- -- 98
2019-11-14 01:00:00 5.5 3 Sudeste 8 Noroeste 0 -- -- 99
2019-11-14 00:00:00 5.7 0 Calma 5 Sudeste 0 -- -- 97
2019-11-13 23:00:00 6.6 0 Calma 7 Oeste 0 -- -- 96
2019-11-13 22:00:00 7.2 4 Sudeste 7 Sudeste 0 -- -- 95
2019-11-13 21:00:00 9 0 Calma 6 Nordeste 0 -- -- 94
2019-11-13 20:00:00 10 0 Calma 5 Norte 0 -- -- 93
2019-11-13 19:00:00 12.1 2 Nordeste 11 Noroeste 0 -- -- 91
2019-11-13 18:00:00 12.7 9 Noroeste 12 Noroeste 0 -- -- 90
2019-11-13 17:00:00 13.3 9 Norte 20 Nordeste 0 -- -- 89
2019-11-13 16:00:00 13.4 12 Nordeste 30 Nordeste 0 -- -- 88
2019-11-13 15:00:00 13.2 16 Nordeste 28 Norte 0.2 -- -- 90
2019-11-13 14:00:00 13.5 15 Nordeste 22 Nordeste 0 -- -- 88
2019-11-13 13:00:00 13.4 13 Nordeste 17 Nordeste 0 -- -- 95
2019-11-13 12:00:00 13.1 5 Norte 10 Norte 3.4 -- -- 96
2019-11-13 11:00:00 12.7 0 Calma 7 Nordeste 4 -- -- 95
2019-11-13 10:00:00 12.4 6 Norte 26 Oeste 1.8 -- -- 93
2019-11-13 09:00:00 11.5 0 Calma 4 Noroeste 0.2 -- -- 90
2019-11-13 08:00:00 10.5 0 Calma 4 Norte 0 -- -- 91
2019-11-13 07:00:00 9.8 5 Norte 8 Norte 0 -- -- 90
2019-11-13 06:00:00 9.9 3 Sudeste 7 Sudeste 0 -- -- 89
2019-11-13 05:00:00 10.4 6 Sudeste 11 Noroeste 0 -- -- 86
2019-11-13 04:00:00 8.8 8 Sudeste 13 Sudeste 0 -- -- 91
2019-11-13 03:00:00 8.9 0 Calma 5 Sudeste 0 -- -- 89
2019-11-13 02:00:00 8.8 5 Sudeste 11 Noroeste 0 -- -- 87
2019-11-13 01:00:00 12 10 Noroeste 17 Noroeste 0 -- -- 77
2019-11-13 00:00:00 10.9 8 Norte 12 Noroeste 0 -- -- 83
2019-11-12 23:00:00 11.2 0 Calma 22 Oeste 0 -- -- 77
2019-11-12 22:00:00 13.7 15 Oeste 33 Oeste 0 -- -- 70
2019-11-12 21:00:00 14.2 17 Oeste 31 Oeste 0 -- -- 69
2019-11-12 20:00:00 14.1 16 Oeste 25 Oeste 0 -- -- 68
2019-11-12 19:00:00 14.4 17 Oeste 32 Oeste 0 -- -- 66
2019-11-12 18:00:00 14.4 11 Oeste 24 Noroeste 0 -- -- 65
2019-11-12 17:00:00 15.6 17 Noroeste 37 Oeste 0 -- -- 62
2019-11-12 16:00:00 16.8 22 Oeste 30 Oeste 0 -- -- 59
2019-11-12 15:00:00 16.5 21 Noroeste 42 Noroeste 0 -- -- 57
2019-11-12 14:00:00 17 21 Oeste 30 Oeste 0 -- -- 58
2019-11-12 13:00:00 16.8 21 Oeste 32 Oeste 0 -- -- 64
2019-11-12 12:00:00 16.2 8 Noroeste 12 Noroeste 0 -- -- 62
2019-11-12 11:00:00 15 5 Norte 10 Norte 0 -- -- 70
2019-11-12 10:00:00 12.3 3 Noroeste 9 Nordeste 0 -- -- 81
2019-11-12 09:00:00 8.9 4 Nordeste 6 Nordeste 0 -- -- 96
2019-11-12 08:00:00 5.8 0 Calma 4 Este 0 -- -- 98
2019-11-12 07:00:00 4.5 0 Calma 4 Sudeste 0 -- -- 96
2019-11-12 06:00:00 4.9 2 Sudeste 9 Norte 0 -- -- 96
2019-11-12 05:00:00 4.5 0 Calma 4 Oeste 0 -- -- 96
2019-11-12 04:00:00 4.9 0 Calma 3 Nordeste 0 -- -- 95
2019-11-12 03:00:00 5.3 0 Calma 4 Nordeste 0 -- -- 95
2019-11-12 02:00:00 5.6 0 Calma 4 Sudeste 0 -- -- 94
2019-11-12 01:00:00 5.9 2 Sudeste 4 Sudeste 0 -- -- 92
2019-11-12 00:00:00 6.8 0 Calma 6 Oeste 0 -- -- 92